sensor_id;sensor_type;location;lat;lon;timestamp;pressure;altitude;pressure_sealevel;temperature;humidity
62436;BME280;48480;50.252;18.848;2023-07-28T00:02:22;97920.97;;;18.48;49.37
62436;BME280;48480;50.252;18.848;2023-07-28T00:05:06;97921.44;;;18.48;49.46
62436;BME280;48480;50.252;18.848;2023-07-28T00:07:50;97914.77;;;18.50;49.51
62436;BME280;48480;50.252;18.848;2023-07-28T00:10:43;97912.98;;;18.50;49.54
62436;BME280;48480;50.252;18.848;2023-07-28T00:13:28;97916.10;;;18.50;49.83
62436;BME280;48480;50.252;18.848;2023-07-28T00:16:12;97913.92;;;18.50;49.84
62436;BME280;48480;50.252;18.848;2023-07-28T00:18:57;97907.23;;;18.48;49.93
62436;BME280;48480;50.252;18.848;2023-07-28T00:21:41;97909.33;;;18.47;50.16
62436;BME280;48480;50.252;18.848;2023-07-28T00:24:26;97893.77;;;18.38;50.31
62436;BME280;48480;50.252;18.848;2023-07-28T00:27:11;97902.41;;;18.45;50.46
62436;BME280;48480;50.252;18.848;2023-07-28T00:29:58;97901.55;;;18.44;50.59
62436;BME280;48480;50.252;18.848;2023-07-28T00:32:43;97904.74;;;18.43;50.76
62436;BME280;48480;50.252;18.848;2023-07-28T00:35:27;97904.73;;;18.42;50.97
62436;BME280;48480;50.252;18.848;2023-07-28T00:38:12;97903.87;;;18.41;51.30
62436;BME280;48480;50.252;18.848;2023-07-28T00:40:57;97906.95;;;18.37;51.93
62436;BME280;48480;50.252;18.848;2023-07-28T00:43:42;97899.17;;;18.32;52.60
62436;BME280;48480;50.252;18.848;2023-07-28T00:46:26;97895.35;;;18.27;53.10
62436;BME280;48480;50.252;18.848;2023-07-28T00:49:10;97892.21;;;18.21;53.48
62436;BME280;48480;50.252;18.848;2023-07-28T00:51:55;97894.70;;;18.21;53.74
62436;BME280;48480;50.252;18.848;2023-07-28T00:54:41;97894.98;;;18.18;54.07
62436;BME280;48480;50.252;18.848;2023-07-28T00:57:25;97892.56;;;18.15;54.47
62436;BME280;48480;50.252;18.848;2023-07-28T01:00:09;97893.56;;;18.11;54.66
62436;BME280;48480;50.252;18.848;2023-07-28T01:02:56;97895.23;;;18.08;55.00
62436;BME280;48480;50.252;18.848;2023-07-28T01:05:55;97898.55;;;18.05;55.09
62436;BME280;48480;50.252;18.848;2023-07-28T01:11:34;97884.95;;;18.00;55.69
62436;BME280;48480;50.252;18.848;2023-07-28T01:14:18;97884.55;;;17.97;55.97
62436;BME280;48480;50.252;18.848;2023-07-28T01:17:05;97877.65;;;17.96;56.06
62436;BME280;48480;50.252;18.848;2023-07-28T01:19:51;97872.37;;;17.95;56.09
62436;BME280;48480;50.252;18.848;2023-07-28T01:22:50;97867.80;;;17.94;56.18
62436;BME280;48480;50.252;18.848;2023-07-28T01:28:35;97861.29;;;17.96;56.16
62436;BME280;48480;50.252;18.848;2023-07-28T01:31:20;97866.58;;;17.98;55.98
62436;BME280;48480;50.252;18.848;2023-07-28T01:34:05;97866.56;;;17.98;56.04
62436;BME280;48480;50.252;18.848;2023-07-28T01:36:50;97868.36;;;17.99;56.25
62436;BME280;48480;50.252;18.848;2023-07-28T01:39:35;97860.66;;;17.95;56.34
62436;BME280;48480;50.252;18.848;2023-07-28T01:42:19;97864.55;;;17.99;56.29
62436;BME280;48480;50.252;18.848;2023-07-28T01:45:04;97860.38;;;18.00;56.35
62436;BME280;48480;50.252;18.848;2023-07-28T01:47:51;97855.88;;;17.99;56.37
62436;BME280;48480;50.252;18.848;2023-07-28T01:50:36;97852.86;;;18.00;56.45
62436;BME280;48480;50.252;18.848;2023-07-28T01:53:21;97855.48;;;18.01;56.44
62436;BME280;48480;50.252;18.848;2023-07-28T01:56:05;97849.61;;;18.01;56.44
62436;BME280;48480;50.252;18.848;2023-07-28T01:58:49;97848.45;;;18.01;56.35
62436;BME280;48480;50.252;18.848;2023-07-28T02:01:35;97846.04;;;18.01;56.49
62436;BME280;48480;50.252;18.848;2023-07-28T02:04:19;97844.73;;;18.00;56.48
62436;BME280;48480;50.252;18.848;2023-07-28T02:07:04;97835.66;;;18.01;56.65
62436;BME280;48480;50.252;18.848;2023-07-28T02:09:48;97837.98;;;18.02;56.67
62436;BME280;48480;50.252;18.848;2023-07-28T02:12:32;97833.88;;;18.03;56.62
62436;BME280;48480;50.252;18.848;2023-07-28T02:15:16;97834.27;;;18.05;56.79
62436;BME280;48480;50.252;18.848;2023-07-28T02:18:00;97835.70;;;18.06;56.70
62436;BME280;48480;50.252;18.848;2023-07-28T02:20:47;97834.77;;;18.08;56.71
62436;BME280;48480;50.252;18.848;2023-07-28T02:23:32;97834.21;;;18.08;56.61
62436;BME280;48480;50.252;18.848;2023-07-28T02:26:16;97828.02;;;18.09;56.74
62436;BME280;48480;50.252;18.848;2023-07-28T02:29:00;97833.84;;;18.11;56.71
62436;BME280;48480;50.252;18.848;2023-07-28T02:31:44;97832.69;;;18.12;56.75
62436;BME280;48480;50.252;18.848;2023-07-28T02:34:28;97828.98;;;18.13;56.83
62436;BME280;48480;50.252;18.848;2023-07-28T02:37:14;97829.90;;;18.14;56.90
62436;BME280;48480;50.252;18.848;2023-07-28T02:39:58;97831.77;;;18.16;56.98
62436;BME280;48480;50.252;18.848;2023-07-28T02:42:42;97830.23;;;18.15;57.08
62436;BME280;48480;50.252;18.848;2023-07-28T02:45:26;97831.30;;;18.15;57.11
62436;BME280;48480;50.252;18.848;2023-07-28T02:48:11;97833.61;;;18.13;57.21
62436;BME280;48480;50.252;18.848;2023-07-28T02:50:54;97830.20;;;18.14;57.13
62436;BME280;48480;50.252;18.848;2023-07-28T02:53:39;97830.05;;;18.15;57.16
62436;BME280;48480;50.252;18.848;2023-07-28T02:56:22;97830.83;;;18.14;57.13
62436;BME280;48480;50.252;18.848;2023-07-28T02:59:06;97828.66;;;18.13;57.35
62436;BME280;48480;50.252;18.848;2023-07-28T03:01:51;97826.59;;;18.15;57.24
62436;BME280;48480;50.252;18.848;2023-07-28T03:04:36;97828.91;;;18.17;57.44
62436;BME280;48480;50.252;18.848;2023-07-28T03:07:20;97828.60;;;18.17;57.49
62436;BME280;48480;50.252;18.848;2023-07-28T03:10:05;97821.85;;;18.16;57.48
62436;BME280;48480;50.252;18.848;2023-07-28T03:12:49;97816.87;;;18.14;57.63
62436;BME280;48480;50.252;18.848;2023-07-28T03:15:33;97814.93;;;18.12;57.68
62436;BME280;48480;50.252;18.848;2023-07-28T03:18:17;97812.67;;;18.11;57.84
62436;BME280;48480;50.252;18.848;2023-07-28T03:21:02;97809.64;;;18.10;57.93
62436;BME280;48480;50.252;18.848;2023-07-28T03:23:46;97805.77;;;18.07;57.89
62436;BME280;48480;50.252;18.848;2023-07-28T03:26:30;97804.66;;;18.03;57.97
62436;BME280;48480;50.252;18.848;2023-07-28T03:29:14;97809.73;;;17.99;58.14
62436;BME280;48480;50.252;18.848;2023-07-28T03:31:58;97808.96;;;17.95;58.17
62436;BME280;48480;50.252;18.848;2023-07-28T03:34:42;97813.20;;;17.94;58.43
62436;BME280;48480;50.252;18.848;2023-07-28T03:37:27;97814.83;;;17.93;58.56
62436;BME280;48480;50.252;18.848;2023-07-28T03:40:11;97818.70;;;17.92;58.62
62436;BME280;48480;50.252;18.848;2023-07-28T03:42:57;97817.39;;;17.92;58.52
62436;BME280;48480;50.252;18.848;2023-07-28T03:45:41;97820.56;;;17.91;58.66
62436;BME280;48480;50.252;18.848;2023-07-28T03:48:25;97819.63;;;17.91;58.72
62436;BME280;48480;50.252;18.848;2023-07-28T03:51:09;97819.09;;;17.91;58.90
62436;BME280;48480;50.252;18.848;2023-07-28T03:53:52;97818.07;;;17.89;59.28
62436;BME280;48480;50.252;18.848;2023-07-28T03:56:36;97808.45;;;17.87;59.36
62436;BME280;48480;50.252;18.848;2023-07-28T03:59:20;97806.02;;;17.85;59.82
62436;BME280;48480;50.252;18.848;2023-07-28T04:02:04;97806.13;;;17.82;60.16
62436;BME280;48480;50.252;18.848;2023-07-28T04:04:56;97802.41;;;17.79;60.50
62436;BME280;48480;50.252;18.848;2023-07-28T04:07:40;97800.67;;;17.74;60.43
62436;BME280;48480;50.252;18.848;2023-07-28T04:10:24;97808.09;;;17.71;60.49
62436;BME280;48480;50.252;18.848;2023-07-28T04:13:08;97802.27;;;17.69;60.71
62436;BME280;48480;50.252;18.848;2023-07-28T04:15:52;97800.55;;;17.68;60.85
62436;BME280;48480;50.252;18.848;2023-07-28T04:18:36;97797.77;;;17.69;60.83
62436;BME280;48480;50.252;18.848;2023-07-28T04:21:21;97796.70;;;17.70;60.97
62436;BME280;48480;50.252;18.848;2023-07-28T04:24:06;97796.85;;;17.70;60.95
62436;BME280;48480;50.252;18.848;2023-07-28T04:26:52;97797.47;;;17.69;60.99
62436;BME280;48480;50.252;18.848;2023-07-28T04:29:36;97793.44;;;17.69;61.07
62436;BME280;48480;50.252;18.848;2023-07-28T04:32:21;97793.59;;;17.68;61.27
62436;BME280;48480;50.252;18.848;2023-07-28T04:35:05;97786.76;;;17.68;61.47
62436;BME280;48480;50.252;18.848;2023-07-28T04:37:50;97783.59;;;17.69;61.53
62436;BME280;48480;50.252;18.848;2023-07-28T04:40:34;97782.83;;;17.68;61.81
62436;BME280;48480;50.252;18.848;2023-07-28T04:43:18;97783.98;;;17.68;62.00
62436;BME280;48480;50.252;18.848;2023-07-28T04:46:02;97781.57;;;17.67;61.99
62436;BME280;48480;50.252;18.848;2023-07-28T04:48:46;97783.27;;;17.68;62.21
62436;BME280;48480;50.252;18.848;2023-07-28T04:51:29;97784.13;;;17.69;62.54
62436;BME280;48480;50.252;18.848;2023-07-28T04:54:14;97783.27;;;17.68;62.92
62436;BME280;48480;50.252;18.848;2023-07-28T04:56:58;97781.48;;;17.68;63.33
62436;BME280;48480;50.252;18.848;2023-07-28T04:59:42;97785.45;;;17.68;64.51
62436;BME280;48480;50.252;18.848;2023-07-28T05:02:26;97788.39;;;17.66;65.19
62436;BME280;48480;50.252;18.848;2023-07-28T05:05:11;97789.51;;;17.74;65.08
62436;BME280;48480;50.252;18.848;2023-07-28T05:07:55;97792.06;;;17.84;65.65
62436;BME280;48480;50.252;18.848;2023-07-28T05:10:41;97793.04;;;17.89;66.03
62436;BME280;48480;50.252;18.848;2023-07-28T05:13:26;97795.69;;;17.89;66.05
62436;BME280;48480;50.252;18.848;2023-07-28T05:16:10;97792.48;;;17.87;66.11
62436;BME280;48480;50.252;18.848;2023-07-28T05:18:54;97790.26;;;17.82;66.23
62436;BME280;48480;50.252;18.848;2023-07-28T05:21:38;97792.23;;;17.76;66.29
62436;BME280;48480;50.252;18.848;2023-07-28T05:24:23;97792.88;;;17.67;66.36
62436;BME280;48480;50.252;18.848;2023-07-28T05:27:07;97790.13;;;17.61;67.10
62436;BME280;48480;50.252;18.848;2023-07-28T05:29:51;97791.55;;;17.54;67.69
62436;BME280;48480;50.252;18.848;2023-07-28T05:32:35;97785.20;;;17.52;67.94
62436;BME280;48480;50.252;18.848;2023-07-28T05:35:19;97782.42;;;17.55;68.66
62436;BME280;48480;50.252;18.848;2023-07-28T05:38:04;97786.70;;;17.58;69.63
62436;BME280;48480;50.252;18.848;2023-07-28T05:40:58;97782.76;;;17.58;70.16
62436;BME280;48480;50.252;18.848;2023-07-28T05:43:44;97785.84;;;17.56;71.11
62436;BME280;48480;50.252;18.848;2023-07-28T05:46:28;97785.21;;;17.55;71.25
62436;BME280;48480;50.252;18.848;2023-07-28T05:49:13;97785.21;;;17.56;71.41
62436;BME280;48480;50.252;18.848;2023-07-28T05:51:57;97786.05;;;17.55;71.36
62436;BME280;48480;50.252;18.848;2023-07-28T05:54:42;97784.61;;;17.57;71.44
62436;BME280;48480;50.252;18.848;2023-07-28T05:57:26;97785.54;;;17.59;71.44
62436;BME280;48480;50.252;18.848;2023-07-28T06:00:11;97784.23;;;17.59;71.53
62436;BME280;48480;50.252;18.848;2023-07-28T06:02:56;97786.15;;;17.58;71.81
62436;BME280;48480;50.252;18.848;2023-07-28T06:05:41;97789.41;;;17.58;72.34
62436;BME280;48480;50.252;18.848;2023-07-28T06:08:25;97790.98;;;17.60;72.89
62436;BME280;48480;50.252;18.848;2023-07-28T06:11:09;97795.02;;;17.61;73.53
62436;BME280;48480;50.252;18.848;2023-07-28T06:13:54;97796.16;;;17.60;74.02
62436;BME280;48480;50.252;18.848;2023-07-28T06:16:38;97799.64;;;17.57;74.69
62436;BME280;48480;50.252;18.848;2023-07-28T06:19:23;97804.33;;;17.52;75.20
62436;BME280;48480;50.252;18.848;2023-07-28T06:22:07;97804.02;;;17.49;75.98
62436;BME280;48480;50.252;18.848;2023-07-28T06:24:51;97812.42;;;17.47;76.47
62436;BME280;48480;50.252;18.848;2023-07-28T06:27:36;97814.59;;;17.45;77.00
62436;BME280;48480;50.252;18.848;2023-07-28T06:30:20;97816.41;;;17.41;77.40
62436;BME280;48480;50.252;18.848;2023-07-28T06:33:06;97820.15;;;17.34;78.01
62436;BME280;48480;50.252;18.848;2023-07-28T06:35:51;97818.08;;;17.25;78.52
62436;BME280;48480;50.252;18.848;2023-07-28T06:38:35;97818.35;;;17.21;79.27
62436;BME280;48480;50.252;18.848;2023-07-28T06:41:20;97817.31;;;17.20;79.59
62436;BME280;48480;50.252;18.848;2023-07-28T06:44:04;97819.02;;;17.19;79.93
62436;BME280;48480;50.252;18.848;2023-07-28T06:46:48;97821.27;;;17.21;80.22
62436;BME280;48480;50.252;18.848;2023-07-28T06:49:32;97813.77;;;17.12;80.81
62436;BME280;48480;50.252;18.848;2023-07-28T06:52:17;97825.68;;;17.19;81.10
62436;BME280;48480;50.252;18.848;2023-07-28T06:55:01;97827.05;;;17.15;81.32
62436;BME280;48480;50.252;18.848;2023-07-28T06:57:46;97826.56;;;17.13;81.97
62436;BME280;48480;50.252;18.848;2023-07-28T07:00:31;97823.52;;;17.10;82.42
62436;BME280;48480;50.252;18.848;2023-07-28T07:03:17;97823.67;;;17.09;83.13
62436;BME280;48480;50.252;18.848;2023-07-28T07:06:01;97827.20;;;17.06;83.34
62436;BME280;48480;50.252;18.848;2023-07-28T07:08:46;97829.25;;;17.03;83.71
62436;BME280;48480;50.252;18.848;2023-07-28T07:11:31;97832.97;;;17.01;83.94
62436;BME280;48480;50.252;18.848;2023-07-28T07:14:15;97832.38;;;16.98;84.09
62436;BME280;48480;50.252;18.848;2023-07-28T07:17:00;97833.30;;;16.96;84.52
62436;BME280;48480;50.252;18.848;2023-07-28T07:19:45;97831.88;;;16.93;84.93
62436;BME280;48480;50.252;18.848;2023-07-28T07:22:29;97835.52;;;16.93;84.61
62436;BME280;48480;50.252;18.848;2023-07-28T07:25:13;97834.61;;;16.96;84.89
62436;BME280;48480;50.252;18.848;2023-07-28T07:27:57;97837.61;;;17.02;84.97
62436;BME280;48480;50.252;18.848;2023-07-28T07:30:42;97840.14;;;17.07;84.92
62436;BME280;48480;50.252;18.848;2023-07-28T07:33:26;97834.77;;;17.12;85.04
62436;BME280;48480;50.252;18.848;2023-07-28T07:36:15;97834.64;;;17.15;84.88
62436;BME280;48480;50.252;18.848;2023-07-28T07:38:59;97839.27;;;17.22;85.03
62436;BME280;48480;50.252;18.848;2023-07-28T07:41:43;97839.34;;;17.31;85.02
62436;BME280;48480;50.252;18.848;2023-07-28T07:44:29;97845.59;;;17.38;85.01
62436;BME280;48480;50.252;18.848;2023-07-28T07:47:15;97843.30;;;17.42;84.80
62436;BME280;48480;50.252;18.848;2023-07-28T07:50:00;97840.39;;;17.47;85.00
62436;BME280;48480;50.252;18.848;2023-07-28T07:52:45;97834.54;;;17.52;84.77
62436;BME280;48480;50.252;18.848;2023-07-28T07:55:29;97839.09;;;17.61;84.89
62436;BME280;48480;50.252;18.848;2023-07-28T07:58:17;97842.35;;;17.72;84.82
62436;BME280;48480;50.252;18.848;2023-07-28T08:01:05;97844.05;;;17.83;84.80
62436;BME280;48480;50.252;18.848;2023-07-28T08:03:49;97845.29;;;17.90;84.54
62436;BME280;48480;50.252;18.848;2023-07-28T08:06:36;97828.52;;;17.88;84.47
62436;BME280;48480;50.252;18.848;2023-07-28T08:09:21;97847.73;;;18.10;83.96
62436;BME280;48480;50.252;18.848;2023-07-28T08:12:06;97853.97;;;18.20;83.90
62436;BME280;48480;50.252;18.848;2023-07-28T08:14:51;97853.69;;;18.26;83.73
62436;BME280;48480;50.252;18.848;2023-07-28T08:17:35;97852.09;;;18.32;83.35
62436;BME280;48480;50.252;18.848;2023-07-28T08:20:19;97847.84;;;18.37;83.30
62436;BME280;48480;50.252;18.848;2023-07-28T08:23:04;97845.02;;;18.45;83.26
62436;BME280;48480;50.252;18.848;2023-07-28T08:25:48;97852.95;;;18.56;83.56
62436;BME280;48480;50.252;18.848;2023-07-28T08:28:32;97851.35;;;18.66;83.08
62436;BME280;48480;50.252;18.848;2023-07-28T08:31:16;97852.23;;;18.71;82.48
62436;BME280;48480;50.252;18.848;2023-07-28T08:34:00;97846.55;;;18.70;82.13
62436;BME280;48480;50.252;18.848;2023-07-28T08:36:44;97854.39;;;18.68;81.78
62436;BME280;48480;50.252;18.848;2023-07-28T08:39:28;97860.20;;;18.64;81.46
62436;BME280;48480;50.252;18.848;2023-07-28T08:42:13;97860.27;;;18.58;81.46
62436;BME280;48480;50.252;18.848;2023-07-28T08:44:57;97856.83;;;18.55;81.36
62436;BME280;48480;50.252;18.848;2023-07-28T08:47:42;97857.44;;;18.51;81.07
62436;BME280;48480;50.252;18.848;2023-07-28T08:50:26;97848.80;;;18.46;81.23
62436;BME280;48480;50.252;18.848;2023-07-28T08:53:10;97854.71;;;18.48;81.11
62436;BME280;48480;50.252;18.848;2023-07-28T08:55:54;97856.02;;;18.47;81.04
62436;BME280;48480;50.252;18.848;2023-07-28T08:58:38;97853.79;;;18.49;80.57
62436;BME280;48480;50.252;18.848;2023-07-28T09:01:23;97852.08;;;18.50;80.69
62436;BME280;48480;50.252;18.848;2023-07-28T09:04:11;97855.50;;;18.53;80.30
62436;BME280;48480;50.252;18.848;2023-07-28T09:06:55;97852.64;;;18.55;80.41
62436;BME280;48480;50.252;18.848;2023-07-28T09:09:40;97856.64;;;18.63;80.45
62436;BME280;48480;50.252;18.848;2023-07-28T09:12:31;97856.95;;;18.71;80.05
62436;BME280;48480;50.252;18.848;2023-07-28T09:15:15;97862.67;;;18.81;79.87
62436;BME280;48480;50.252;18.848;2023-07-28T09:18:00;97866.98;;;18.91;79.52
62436;BME280;48480;50.252;18.848;2023-07-28T09:20:45;97861.27;;;19.01;79.34
62436;BME280;48480;50.252;18.848;2023-07-28T09:23:30;97864.92;;;19.13;79.05
62436;BME280;48480;50.252;18.848;2023-07-28T09:26:15;97859.50;;;19.24;78.76
62436;BME280;48480;50.252;18.848;2023-07-28T09:29:00;97859.11;;;19.35;77.89
62436;BME280;48480;50.252;18.848;2023-07-28T09:31:46;97848.70;;;19.50;77.77
62436;BME280;48480;50.252;18.848;2023-07-28T09:34:31;97846.13;;;19.65;77.29
62436;BME280;48480;50.252;18.848;2023-07-28T09:37:19;97854.23;;;19.78;76.27
62436;BME280;48480;50.252;18.848;2023-07-28T09:40:10;97863.15;;;19.88;76.04
62436;BME280;48480;50.252;18.848;2023-07-28T09:42:58;97861.35;;;19.93;75.48
62436;BME280;48480;50.252;18.848;2023-07-28T09:45:44;97862.41;;;20.05;75.06
62436;BME280;48480;50.252;18.848;2023-07-28T09:48:31;97860.52;;;20.09;74.91
62436;BME280;48480;50.252;18.848;2023-07-28T09:51:18;97860.52;;;20.18;73.65
62436;BME280;48480;50.252;18.848;2023-07-28T09:54:05;97869.98;;;20.20;72.98
62436;BME280;48480;50.252;18.848;2023-07-28T09:56:50;97868.11;;;20.24;72.66
62436;BME280;48480;50.252;18.848;2023-07-28T09:59:38;97867.55;;;20.32;72.25
62436;BME280;48480;50.252;18.848;2023-07-28T10:02:24;97860.98;;;20.39;71.29
62436;BME280;48480;50.252;18.848;2023-07-28T10:05:09;97859.89;;;20.39;70.93
62436;BME280;48480;50.252;18.848;2023-07-28T10:07:56;97860.96;;;20.45;71.15
62436;BME280;48480;50.252;18.848;2023-07-28T10:10:40;97858.77;;;20.50;70.69
62436;BME280;48480;50.252;18.848;2023-07-28T10:13:27;97855.70;;;20.56;70.97
62436;BME280;48480;50.252;18.848;2023-07-28T10:16:15;97860.13;;;20.67;70.21
62436;BME280;48480;50.252;18.848;2023-07-28T10:19:00;97855.50;;;20.72;70.11
62436;BME280;48480;50.252;18.848;2023-07-28T10:21:45;97864.49;;;20.79;69.63
62436;BME280;48480;50.252;18.848;2023-07-28T10:24:58;97866.59;;;20.81;69.14
62436;BME280;48480;50.252;18.848;2023-07-28T10:31:10;97874.72;;;20.88;68.68
62436;BME280;48480;50.252;18.848;2023-07-28T10:34:10;97885.15;;;21.00;69.24
62436;BME280;48480;50.252;18.848;2023-07-28T10:37:07;97893.70;;;21.18;68.61
62436;BME280;48480;50.252;18.848;2023-07-28T10:43:08;97891.63;;;21.51;67.71
62436;BME280;48480;50.252;18.848;2023-07-28T10:45:54;97893.54;;;21.65;67.48
62436;BME280;48480;50.252;18.848;2023-07-28T10:48:43;97892.40;;;21.79;67.19
62436;BME280;48480;50.252;18.848;2023-07-28T10:51:28;97888.83;;;21.95;66.78
62436;BME280;48480;50.252;18.848;2023-07-28T10:54:21;97879.15;;;22.10;66.49
62436;BME280;48480;50.252;18.848;2023-07-28T10:57:05;97876.98;;;22.25;66.03
62436;BME280;48480;50.252;18.848;2023-07-28T10:59:59;97877.55;;;22.40;65.07
62436;BME280;48480;50.252;18.848;2023-07-28T11:03:02;97874.17;;;22.58;64.63
62436;BME280;48480;50.252;18.848;2023-07-28T11:06:11;97877.09;;;22.81;63.55
62436;BME280;48480;50.252;18.848;2023-07-28T11:09:22;97878.05;;;22.97;62.97
62436;BME280;48480;50.252;18.848;2023-07-28T11:12:20;97873.52;;;23.10;62.76
62436;BME280;48480;50.252;18.848;2023-07-28T11:19:07;97872.52;;;23.45;62.73
62436;BME280;48480;50.252;18.848;2023-07-28T11:22:14;97856.48;;;23.45;61.44
62436;BME280;48480;50.252;18.848;2023-07-28T11:25:11;97870.79;;;23.55;61.96
62436;BME280;48480;50.252;18.848;2023-07-28T11:27:56;97871.61;;;23.61;61.20
62436;BME280;48480;50.252;18.848;2023-07-28T11:30:40;97871.90;;;23.72;61.98
62436;BME280;48480;50.252;18.848;2023-07-28T11:33:28;97874.02;;;23.82;61.19
62436;BME280;48480;50.252;18.848;2023-07-28T11:36:22;97869.89;;;23.77;60.43
62436;BME280;48480;50.252;18.848;2023-07-28T11:39:07;97870.73;;;23.67;61.15
62436;BME280;48480;50.252;18.848;2023-07-28T11:41:53;97879.13;;;23.66;61.10
62436;BME280;48480;50.252;18.848;2023-07-28T11:44:39;97855.41;;;23.44;60.87
62436;BME280;48480;50.252;18.848;2023-07-28T11:47:25;97883.54;;;23.60;61.00
62436;BME280;48480;50.252;18.848;2023-07-28T11:50:10;97883.99;;;23.56;61.00
62436;BME280;48480;50.252;18.848;2023-07-28T11:53:00;97881.52;;;23.54;61.26
62436;BME280;48480;50.252;18.848;2023-07-28T11:55:44;97883.52;;;23.56;61.20
62436;BME280;48480;50.252;18.848;2023-07-28T11:58:34;97879.92;;;23.61;60.79
62436;BME280;48480;50.252;18.848;2023-07-28T12:01:19;97878.48;;;23.63;59.82
62436;BME280;48480;50.252;18.848;2023-07-28T12:04:22;97881.11;;;23.60;59.54
62436;BME280;48480;50.252;18.848;2023-07-28T12:07:13;97883.94;;;23.45;59.85
62436;BME280;48480;50.252;18.848;2023-07-28T12:10:06;97883.70;;;23.34;60.04
62436;BME280;48480;50.252;18.848;2023-07-28T12:12:52;97879.05;;;23.27;60.39
62436;BME280;48480;50.252;18.848;2023-07-28T12:15:40;97873.77;;;23.25;60.86
62436;BME280;48480;50.252;18.848;2023-07-28T12:18:30;97872.42;;;23.24;61.44
62436;BME280;48480;50.252;18.848;2023-07-28T12:21:16;97869.83;;;23.21;61.46
62436;BME280;48480;50.252;18.848;2023-07-28T12:24:00;97869.23;;;23.20;61.97
62436;BME280;48480;50.252;18.848;2023-07-28T12:26:46;97873.30;;;23.24;62.53
62436;BME280;48480;50.252;18.848;2023-07-28T12:29:31;97868.25;;;23.23;62.80
62436;BME280;48480;50.252;18.848;2023-07-28T12:32:17;97865.13;;;23.17;63.00
62436;BME280;48480;50.252;18.848;2023-07-28T12:35:03;97864.38;;;23.09;62.88
62436;BME280;48480;50.252;18.848;2023-07-28T12:37:49;97869.98;;;22.99;62.41
62436;BME280;48480;50.252;18.848;2023-07-28T12:40:35;97871.14;;;22.88;63.05
62436;BME280;48480;50.252;18.848;2023-07-28T12:43:19;97871.93;;;22.75;63.56
62436;BME280;48480;50.252;18.848;2023-07-28T12:46:03;97877.42;;;22.62;64.58
62436;BME280;48480;50.252;18.848;2023-07-28T12:48:47;97880.19;;;22.52;65.57
62436;BME280;48480;50.252;18.848;2023-07-28T12:51:31;97873.52;;;22.43;67.25
62436;BME280;48480;50.252;18.848;2023-07-28T12:54:16;97878.27;;;22.43;68.44
62436;BME280;48480;50.252;18.848;2023-07-28T12:57:02;97881.73;;;22.41;68.51
62436;BME280;48480;50.252;18.848;2023-07-28T12:59:46;97877.52;;;22.40;68.50
62436;BME280;48480;50.252;18.848;2023-07-28T13:02:31;97877.40;;;22.44;68.31
62436;BME280;48480;50.252;18.848;2023-07-28T13:05:15;97873.23;;;22.59;68.30
62436;BME280;48480;50.252;18.848;2023-07-28T13:08:01;97870.77;;;22.69;68.41
62436;BME280;48480;50.252;18.848;2023-07-28T13:10:46;97870.83;;;22.87;68.10
62436;BME280;48480;50.252;18.848;2023-07-28T13:13:30;97877.14;;;23.00;66.95
62436;BME280;48480;50.252;18.848;2023-07-28T13:16:15;97875.27;;;23.13;66.50
62436;BME280;48480;50.252;18.848;2023-07-28T13:18:59;97880.79;;;23.26;65.09
62436;BME280;48480;50.252;18.848;2023-07-28T13:21:43;97883.31;;;23.29;64.37
62436;BME280;48480;50.252;18.848;2023-07-28T13:24:27;97883.98;;;23.32;64.23
62436;BME280;48480;50.252;18.848;2023-07-28T13:27:12;97876.25;;;23.36;63.70
62436;BME280;48480;50.252;18.848;2023-07-28T13:29:56;97877.77;;;23.39;63.53
62436;BME280;48480;50.252;18.848;2023-07-28T13:32:42;97875.78;;;23.41;62.91
62436;BME280;48480;50.252;18.848;2023-07-28T13:35:26;97872.00;;;23.43;62.73
62436;BME280;48480;50.252;18.848;2023-07-28T13:38:14;97873.98;;;23.46;62.38
62436;BME280;48480;50.252;18.848;2023-07-28T13:40:58;97867.34;;;23.46;62.12
62436;BME280;48480;50.252;18.848;2023-07-28T13:43:52;97875.89;;;23.54;61.34
62436;BME280;48480;50.252;18.848;2023-07-28T13:46:36;97876.80;;;23.50;61.65
62436;BME280;48480;50.252;18.848;2023-07-28T13:52:12;97874.80;;;23.54;61.96
62436;BME280;48480;50.252;18.848;2023-07-28T13:57:49;97874.13;;;23.65;60.84
62436;BME280;48480;50.252;18.848;2023-07-28T14:03:27;97872.05;;;23.68;61.36
62436;BME280;48480;50.252;18.848;2023-07-28T14:06:23;97870.11;;;23.77;61.69
62436;BME280;48480;50.252;18.848;2023-07-28T14:09:07;97868.65;;;23.86;60.83
62436;BME280;48480;50.252;18.848;2023-07-28T14:14:45;97844.78;;;23.67;60.95
62436;BME280;48480;50.252;18.848;2023-07-28T14:20:10;97860.48;;;23.78;61.36
62436;BME280;48480;50.252;18.848;2023-07-28T14:22:54;97854.84;;;23.74;61.23
62436;BME280;48480;50.252;18.848;2023-07-28T14:25:38;97852.08;;;23.70;61.63
62436;BME280;48480;50.252;18.848;2023-07-28T14:28:25;97853.59;;;23.64;62.03
62436;BME280;48480;50.252;18.848;2023-07-28T14:31:10;97829.33;;;23.46;62.38
62436;BME280;48480;50.252;18.848;2023-07-28T14:33:55;97850.90;;;23.61;62.78
62436;BME280;48480;50.252;18.848;2023-07-28T14:36:47;97846.33;;;23.49;62.97
62436;BME280;48480;50.252;18.848;2023-07-28T14:39:32;97845.27;;;23.37;63.52
62436;BME280;48480;50.252;18.848;2023-07-28T14:42:19;97835.27;;;23.32;63.98
62436;BME280;48480;50.252;18.848;2023-07-28T14:45:00;97831.47;;;23.35;64.00
62436;BME280;48480;50.252;18.848;2023-07-28T14:47:44;97828.13;;;23.43;63.93
62436;BME280;48480;50.252;18.848;2023-07-28T14:50:30;97831.35;;;23.56;63.82
62436;BME280;48480;50.252;18.848;2023-07-28T14:53:34;97830.34;;;23.70;62.71
62436;BME280;48480;50.252;18.848;2023-07-28T14:56:25;97834.25;;;23.79;61.88
62436;BME280;48480;50.252;18.848;2023-07-28T14:59:13;97828.70;;;23.88;62.05